createdAt,value
2018-12-02T00:01:56.391Z,90.00
2018-12-02T00:04:25.503Z,90.30
2018-12-02T00:06:54.656Z,90.20
2018-12-02T00:09:23.827Z,90.20
2018-12-02T00:11:53.050Z,90.30
2018-12-02T00:14:22.565Z,90.30
2018-12-02T00:16:51.573Z,90.10
2018-12-02T00:19:20.781Z,90.00
2018-12-02T00:21:50.162Z,89.80
2018-12-02T00:24:19.227Z,89.80
2018-12-02T00:26:49.358Z,89.70
2018-12-02T00:29:18.389Z,89.80
2018-12-02T00:31:47.600Z,89.70
2018-12-02T00:34:17.106Z,90.20
2018-12-02T00:36:46.223Z,90.40
2018-12-02T00:39:15.312Z,90.40
2018-12-02T00:41:44.494Z,90.30
2018-12-02T00:44:13.719Z,90.20
2018-12-02T00:46:42.651Z,90.40
2018-12-02T00:49:11.588Z,90.70
2018-12-02T00:51:40.812Z,90.50
2018-12-02T00:54:09.856Z,90.60
2018-12-02T00:56:38.963Z,90.60
2018-12-02T00:59:08.237Z,90.40
2018-12-02T01:01:37.148Z,90.20
2018-12-02T01:04:06.371Z,90.50
2018-12-02T01:06:35.539Z,90.80
2018-12-02T01:09:04.712Z,90.60
2018-12-02T01:11:33.580Z,90.70
2018-12-02T01:14:02.612Z,90.60
2018-12-02T01:16:33.770Z,90.50
2018-12-02T01:19:02.612Z,90.40
2018-12-02T01:21:31.642Z,90.40
2018-12-02T01:24:00.564Z,90.30
2018-12-02T01:26:29.537Z,90.40
2018-12-02T01:28:58.333Z,90.40
2018-12-02T01:31:27.578Z,90.50
2018-12-02T01:33:56.654Z,90.50
2018-12-02T01:36:25.693Z,90.40
2018-12-02T01:38:54.632Z,90.50
2018-12-02T01:41:23.710Z,90.30
2018-12-02T01:43:52.785Z,90.60
2018-12-02T01:46:24.252Z,90.40
2018-12-02T01:48:53.549Z,90.50
2018-12-02T01:51:22.843Z,90.60
2018-12-02T01:53:51.759Z,90.80
2018-12-02T01:56:20.892Z,90.70
2018-12-02T01:58:50.348Z,90.80
2018-12-02T02:01:19.534Z,90.70
2018-12-02T02:06:40.967Z,90.60
2018-12-02T02:09:10.775Z,90.80
2018-12-02T02:11:39.907Z,90.90
2018-12-02T02:14:09.106Z,90.90
2018-12-02T02:16:38.322Z,90.90
2018-12-02T02:19:08.419Z,91.00
2018-12-02T02:21:37.533Z,91.10
2018-12-02T02:24:06.877Z,91.30
2018-12-02T02:26:35.987Z,91.50
2018-12-02T02:29:05.623Z,91.50
2018-12-02T02:31:34.833Z,91.50
2018-12-02T02:34:04.021Z,91.50
2018-12-02T02:36:33.190Z,91.50
2018-12-02T02:39:02.498Z,91.50
2018-12-02T02:41:31.784Z,91.20
2018-12-02T02:44:01.124Z,91.20
2018-12-02T02:46:30.164Z,91.20
2018-12-02T02:48:59.516Z,91.30
2018-12-02T02:51:28.813Z,91.40
2018-12-02T02:53:58.127Z,91.20
2018-12-02T02:56:27.516Z,91.30
2018-12-02T02:58:56.727Z,91.20
2018-12-02T03:01:25.782Z,91.30
2018-12-02T03:03:55.138Z,91.10
2018-12-02T03:06:24.444Z,91.30
2018-12-02T03:08:53.785Z,91.20
2018-12-02T03:11:24.113Z,91.30
2018-12-02T03:13:53.210Z,91.40
2018-12-02T03:16:22.247Z,91.30
2018-12-02T03:18:51.579Z,91.40
2018-12-02T03:21:20.865Z,91.80
2018-12-02T03:23:51.186Z,91.60
2018-12-02T03:26:20.300Z,91.30
2018-12-02T03:28:49.463Z,91.60
2018-12-02T03:31:18.675Z,91.40
2018-12-02T03:33:47.822Z,91.30
2018-12-02T03:36:25.243Z,91.60
2018-12-02T03:38:54.383Z,91.60
2018-12-02T03:41:24.627Z,91.60
2018-12-02T03:43:54.054Z,91.70
2018-12-02T03:46:23.343Z,91.80
2018-12-02T03:48:52.305Z,91.80
2018-12-02T03:51:21.452Z,91.80
2018-12-02T03:53:50.828Z,91.40
2018-12-02T03:56:19.978Z,91.70
2018-12-02T03:58:49.343Z,91.90
2018-12-02T04:01:18.496Z,91.90
2018-12-02T04:03:47.812Z,91.50
2018-12-02T04:06:17.270Z,91.60
2018-12-02T04:08:46.549Z,91.40
2018-12-02T04:11:15.757Z,91.30
2018-12-02T04:13:44.757Z,91.30
2018-12-02T04:16:13.742Z,91.30
2018-12-02T04:18:44.820Z,91.50
2018-12-02T04:21:14.005Z,91.30
2018-12-02T04:23:44.343Z,91.70
2018-12-02T04:26:13.555Z,91.60
2018-12-02T04:28:42.727Z,91.40
2018-12-02T04:31:11.766Z,91.60
2018-12-02T04:33:41.154Z,91.60
2018-12-02T04:36:10.506Z,91.70
2018-12-02T04:38:39.606Z,91.80
2018-12-02T04:41:08.730Z,91.50
2018-12-02T04:43:38.049Z,91.90
2018-12-02T04:46:07.404Z,91.80
2018-12-02T04:48:36.577Z,91.70
2018-12-02T04:51:05.735Z,91.70
2018-12-02T04:53:34.881Z,91.80
2018-12-02T04:56:04.205Z,91.90
2018-12-02T04:58:37.077Z,92.00
2018-12-02T05:01:06.314Z,91.90
2018-12-02T05:03:35.344Z,92.10
2018-12-02T05:06:04.589Z,92.20
2018-12-02T05:08:33.744Z,91.90
2018-12-02T05:11:02.956Z,92.00
2018-12-02T05:13:32.134Z,91.90
2018-12-02T05:16:01.280Z,92.50
2018-12-02T05:18:30.392Z,92.50
2018-12-02T05:20:59.808Z,92.70
2018-12-02T05:23:32.355Z,92.70
2018-12-02T05:26:01.459Z,92.40
2018-12-02T05:28:30.821Z,92.40
2018-12-02T05:31:00.055Z,92.60
2018-12-02T05:33:29.128Z,92.60
2018-12-02T05:35:59.456Z,93.10
2018-12-02T05:38:28.717Z,93.50
2018-12-02T05:40:58.139Z,93.40
2018-12-02T05:43:27.358Z,93.30
2018-12-02T05:45:56.454Z,92.90
2018-12-02T05:48:25.688Z,93.10
2018-12-02T05:50:55.544Z,93.20
2018-12-02T05:53:25.841Z,93.10
2018-12-02T05:55:56.116Z,92.80
2018-12-02T05:58:25.699Z,93.10
2018-12-02T06:00:56.110Z,92.80
2018-12-02T06:03:25.449Z,93.20
2018-12-02T06:05:55.751Z,93.30
2018-12-02T06:08:24.929Z,93.40
2018-12-02T06:10:54.147Z,93.50
2018-12-02T06:13:24.520Z,93.30
2018-12-02T06:15:53.815Z,93.50
2018-12-02T06:18:23.102Z,93.30
2018-12-02T06:20:52.499Z,93.40
2018-12-02T06:23:21.754Z,93.40
2018-12-02T06:25:51.198Z,93.30
2018-12-02T06:28:20.395Z,93.20
2018-12-02T06:30:49.790Z,93.20
2018-12-02T06:33:18.919Z,93.10
2018-12-02T06:35:49.360Z,93.40
2018-12-02T06:38:18.717Z,93.10
2018-12-02T06:40:49.176Z,92.90
2018-12-02T06:43:18.460Z,93.20
2018-12-02T06:45:47.944Z,93.30
2018-12-02T06:48:17.077Z,93.30
2018-12-02T06:50:46.253Z,93.30
2018-12-02T06:53:15.426Z,93.30
2018-12-02T06:55:55.438Z,93.20
2018-12-02T06:58:54.415Z,93.30
2018-12-02T07:03:44.202Z,93.30
2018-12-02T07:06:13.517Z,93.30
2018-12-02T07:08:43.158Z,93.30
2018-12-02T07:11:14.098Z,93.20
2018-12-02T07:13:43.332Z,92.90
2018-12-02T07:16:12.516Z,93.00
2018-12-02T07:18:45.124Z,93.10
2018-12-02T07:21:19.422Z,92.70
2018-12-02T07:23:56.384Z,92.60
2018-12-02T07:26:29.869Z,92.60
2018-12-02T07:28:59.002Z,92.90
2018-12-02T07:31:27.971Z,92.80
2018-12-02T07:33:57.240Z,93.10
2018-12-02T07:36:26.162Z,92.90
2018-12-02T07:40:35.232Z,93.10
2018-12-02T07:43:11.701Z,93.30
2018-12-02T07:45:42.074Z,93.50
2018-12-02T07:48:11.133Z,93.50
2018-12-02T07:50:42.284Z,93.20
2018-12-02T07:53:24.668Z,93.20
2018-12-02T07:55:54.089Z,93.10
2018-12-02T07:58:23.408Z,93.40
2018-12-02T08:00:52.411Z,93.70
2018-12-02T08:03:21.626Z,93.80
2018-12-02T08:05:50.563Z,93.70
2018-12-02T08:08:19.964Z,93.70
2018-12-02T08:10:50.358Z,93.90
2018-12-02T08:13:19.393Z,93.70
2018-12-02T08:15:48.370Z,93.70
2018-12-02T08:18:18.605Z,93.90
2018-12-02T08:20:47.579Z,94.10
2018-12-02T08:23:17.752Z,93.70
2018-12-02T08:25:46.712Z,94.00
2018-12-02T08:28:15.740Z,94.00
2018-12-02T08:30:44.703Z,93.90
2018-12-02T08:33:13.927Z,93.80
2018-12-02T08:35:42.890Z,93.90
2018-12-02T08:38:14.448Z,93.50
2018-12-02T08:40:43.345Z,93.60
2018-12-02T08:43:13.661Z,93.80
2018-12-02T08:45:42.752Z,93.80
2018-12-02T08:48:11.892Z,93.70
2018-12-02T08:50:41.153Z,93.70
2018-12-02T08:53:09.991Z,93.50
2018-12-02T08:55:39.363Z,93.60
2018-12-02T08:58:08.440Z,93.50
2018-12-02T09:00:37.440Z,93.70
2018-12-02T09:03:09.585Z,93.90
2018-12-02T09:05:38.721Z,93.60
2018-12-02T09:08:09.940Z,94.10
2018-12-02T09:10:39.139Z,94.50
2018-12-02T09:13:09.589Z,93.90
2018-12-02T09:15:40.736Z,93.90
2018-12-02T09:18:10.894Z,93.90
2018-12-02T09:20:39.919Z,93.90
2018-12-02T09:23:13.173Z,94.20
2018-12-02T09:25:41.625Z,94.30
2018-12-02T09:28:10.861Z,94.20
2018-12-02T09:30:40.278Z,94.30
2018-12-02T09:33:09.317Z,94.20
2018-12-02T09:35:38.805Z,93.90
2018-12-02T09:38:10.351Z,93.90
2018-12-02T09:40:39.875Z,93.90
2018-12-02T09:43:08.999Z,93.80
2018-12-02T09:45:38.675Z,93.70
2018-12-02T09:48:07.812Z,93.80
2018-12-02T09:50:36.964Z,93.90
2018-12-02T09:53:06.742Z,94.00
2018-12-02T09:55:43.977Z,93.90
2018-12-02T09:58:26.574Z,93.70
2018-12-02T10:00:57.824Z,93.70
2018-12-02T10:03:27.325Z,94.00
2018-12-02T10:05:56.667Z,93.80
2018-12-02T10:08:26.097Z,93.70
2018-12-02T10:10:55.876Z,93.90
2018-12-02T10:13:25.385Z,94.00
2018-12-02T10:15:54.587Z,93.70
2018-12-02T10:18:23.791Z,93.70
2018-12-02T10:20:53.112Z,93.80
2018-12-02T10:23:22.346Z,93.80
2018-12-02T10:25:51.788Z,93.60
2018-12-02T10:28:21.054Z,93.80
2018-12-02T10:30:59.792Z,93.80
2018-12-02T10:33:29.209Z,93.90
2018-12-02T10:35:58.552Z,93.90
2018-12-02T10:38:27.776Z,93.90
2018-12-02T10:40:58.946Z,94.00
2018-12-02T10:43:32.962Z,94.00
2018-12-02T10:46:04.109Z,94.00
2018-12-02T10:48:35.106Z,93.80
2018-12-02T10:51:10.602Z,93.70
2018-12-02T10:53:39.593Z,93.80
2018-12-02T10:56:08.669Z,93.90
2018-12-02T10:58:37.671Z,93.90
2018-12-02T11:01:13.245Z,93.90
2018-12-02T11:03:42.648Z,93.90
2018-12-02T11:06:11.700Z,93.70
2018-12-02T11:08:40.788Z,93.20
2018-12-02T11:11:09.994Z,93.50
2018-12-02T11:13:38.959Z,93.70
2018-12-02T11:16:11.853Z,93.70
2018-12-02T11:18:40.853Z,93.80
2018-12-02T11:21:10.458Z,93.90
2018-12-02T11:23:39.420Z,93.90
2018-12-02T11:26:08.779Z,94.10
2018-12-02T11:28:37.856Z,94.10
2018-12-02T11:31:07.621Z,94.30
2018-12-02T11:33:36.556Z,94.10
2018-12-02T11:36:05.799Z,94.40
2018-12-02T11:38:34.852Z,94.60
2018-12-02T11:41:03.880Z,94.30
2018-12-02T11:43:32.866Z,94.10
2018-12-02T11:46:02.156Z,94.40
2018-12-02T11:48:31.018Z,94.50
2018-12-02T11:51:01.279Z,94.20
2018-12-02T11:53:30.357Z,94.30
2018-12-02T11:55:59.332Z,94.20
2018-12-02T11:58:29.180Z,94.20
2018-12-02T12:00:58.324Z,94.40
2018-12-02T12:03:27.453Z,94.60
2018-12-02T12:05:56.354Z,94.70
2018-12-02T12:08:25.546Z,94.90
2018-12-02T12:10:54.848Z,94.90
2018-12-02T12:13:24.171Z,95.10
2018-12-02T12:15:57.508Z,94.90
2018-12-02T12:18:26.806Z,95.10
2018-12-02T12:20:56.116Z,94.80
2018-12-02T12:23:25.267Z,94.70
2018-12-02T12:25:54.596Z,94.80
2018-12-02T12:28:25.055Z,94.80
2018-12-02T12:30:54.396Z,94.90
2018-12-02T12:33:24.890Z,94.70
2018-12-02T12:35:55.400Z,95.00
2018-12-02T12:38:24.716Z,94.90
2018-12-02T12:40:54.275Z,95.20
2018-12-02T12:43:34.694Z,95.20
2018-12-02T12:46:04.135Z,95.50
2018-12-02T12:48:35.479Z,95.40
2018-12-02T12:51:04.612Z,95.40
2018-12-02T12:53:33.754Z,95.10
2018-12-02T12:56:03.166Z,95.30
2018-12-02T12:58:40.102Z,95.10
2018-12-02T13:01:15.386Z,95.60
2018-12-02T13:03:50.281Z,96.00
2018-12-02T13:06:25.615Z,96.00
2018-12-02T13:09:00.721Z,96.40
2018-12-02T13:11:36.533Z,96.30
2018-12-02T13:14:12.190Z,96.10
2018-12-02T13:16:48.806Z,96.10
2018-12-02T13:19:24.103Z,95.80
2018-12-02T13:22:02.054Z,96.00
2018-12-02T13:24:37.646Z,96.30
2018-12-02T13:27:14.042Z,96.00
2018-12-02T13:29:48.958Z,95.90
2018-12-02T13:32:24.253Z,95.50
2018-12-02T13:35:12.789Z,95.40
2018-12-02T13:37:42.691Z,95.40
2018-12-02T13:40:15.026Z,95.60
2018-12-02T13:42:51.824Z,95.10
2018-12-02T13:45:23.091Z,95.40
2018-12-02T13:47:53.763Z,95.40
2018-12-02T13:50:23.243Z,95.40
2018-12-02T13:52:53.603Z,95.30
2018-12-02T13:55:24.058Z,95.30
2018-12-02T13:57:53.292Z,95.60
2018-12-02T14:00:24.734Z,95.60
2018-12-02T14:02:59.734Z,95.60
2018-12-02T14:05:28.807Z,95.80
2018-12-02T14:07:58.020Z,95.70
2018-12-02T14:10:27.343Z,95.50
2018-12-02T14:12:57.331Z,95.30
2018-12-02T14:15:32.476Z,95.60
2018-12-02T14:18:13.467Z,95.60
2018-12-02T14:20:42.457Z,95.90
2018-12-02T14:23:11.439Z,96.20
2018-12-02T14:25:40.651Z,96.10
2018-12-02T14:28:09.858Z,96.50
2018-12-02T14:30:38.995Z,96.00
2018-12-02T14:33:08.076Z,96.30
2018-12-02T14:35:37.260Z,96.50
2018-12-02T14:38:06.426Z,96.50
2018-12-02T14:40:35.690Z,96.50
2018-12-02T14:43:05.265Z,96.40
2018-12-02T14:45:34.678Z,96.80
2018-12-02T14:48:03.931Z,96.60
2018-12-02T14:50:33.363Z,96.70
2018-12-02T14:53:02.379Z,96.50
2018-12-02T14:55:31.334Z,96.50
2018-12-02T14:58:00.341Z,96.40
2018-12-02T15:00:29.641Z,96.60
2018-12-02T15:02:58.592Z,96.80
2018-12-02T15:05:27.567Z,96.10
2018-12-02T15:07:57.248Z,95.90
2018-12-02T15:10:26.447Z,96.20
2018-12-02T15:12:55.824Z,96.10
2018-12-02T15:15:25.001Z,95.50
2018-12-02T15:17:54.365Z,95.90
2018-12-02T15:20:23.259Z,96.00
2018-12-02T15:22:52.401Z,96.50
2018-12-02T15:25:21.895Z,96.20
2018-12-02T15:27:51.517Z,96.30
2018-12-02T15:30:20.631Z,96.40
2018-12-02T15:32:51.355Z,96.20
2018-12-02T15:35:20.923Z,96.10
2018-12-02T15:37:51.103Z,96.10
2018-12-02T15:40:20.193Z,96.10
2018-12-02T15:42:53.876Z,96.10
2018-12-02T15:45:23.685Z,96.40
2018-12-02T15:47:53.141Z,96.30
2018-12-02T15:50:23.334Z,96.60
2018-12-02T15:52:52.701Z,96.40
2018-12-02T15:55:25.752Z,96.30
2018-12-02T15:57:55.384Z,96.50
2018-12-02T16:00:27.585Z,96.30
2018-12-02T16:02:56.843Z,96.70
2018-12-02T16:05:25.877Z,97.00
2018-12-02T16:07:54.925Z,96.80
2018-12-02T16:10:24.313Z,96.90
2018-12-02T16:12:56.255Z,97.00
2018-12-02T16:15:29.148Z,96.90
2018-12-02T16:17:58.665Z,96.90
2018-12-02T16:20:40.252Z,96.80
2018-12-02T16:23:09.471Z,96.70
2018-12-02T16:25:38.616Z,96.70
2018-12-02T16:28:09.773Z,96.60
2018-12-02T16:30:39.033Z,96.80
2018-12-02T16:33:08.553Z,96.70
2018-12-02T16:35:37.555Z,96.80
2018-12-02T16:38:08.227Z,96.60
2018-12-02T16:40:37.458Z,96.30
2018-12-02T16:43:07.050Z,96.60
2018-12-02T16:45:38.010Z,96.60
2018-12-02T16:48:08.604Z,96.40
2018-12-02T16:50:40.949Z,96.50
2018-12-02T16:53:30.007Z,96.30
2018-12-02T16:56:01.263Z,96.20
2018-12-02T16:58:37.803Z,96.30
2018-12-02T17:01:13.726Z,96.30
2018-12-02T17:03:42.951Z,96.30
2018-12-02T17:06:13.374Z,96.60
2018-12-02T17:08:42.919Z,96.60
2018-12-02T17:11:13.195Z,96.80
2018-12-02T17:13:41.696Z,96.60
2018-12-02T17:16:11.115Z,96.50
2018-12-02T17:18:40.445Z,96.40
2018-12-02T17:21:09.916Z,96.50
2018-12-02T17:23:39.611Z,96.30
2018-12-02T17:26:09.059Z,96.40
2018-12-02T17:28:38.328Z,96.60
2018-12-02T17:31:16.745Z,96.70
2018-12-02T17:33:46.096Z,96.80
2018-12-02T17:36:15.379Z,96.70
2018-12-02T17:38:44.770Z,96.60
2018-12-02T17:41:15.098Z,96.70
2018-12-02T17:43:44.406Z,96.60
2018-12-02T17:46:13.544Z,96.30
2018-12-02T17:48:42.986Z,96.20
2018-12-02T17:51:12.369Z,96.20
2018-12-02T17:53:42.648Z,96.40
2018-12-02T17:56:11.941Z,96.40
2018-12-02T17:58:41.193Z,96.50
2018-12-02T18:01:12.767Z,96.30
2018-12-02T18:03:42.045Z,96.20
2018-12-02T18:06:11.382Z,96.30
2018-12-02T18:08:40.905Z,96.50
2018-12-02T18:11:10.528Z,96.60
2018-12-02T18:13:40.072Z,96.40
2018-12-02T18:16:12.468Z,96.50
2018-12-02T18:18:41.942Z,96.60
2018-12-02T18:21:11.498Z,96.50
2018-12-02T18:23:41.044Z,96.40
2018-12-02T18:26:10.593Z,96.30
2018-12-02T18:28:39.574Z,96.40
2018-12-02T18:31:10.471Z,96.40
2018-12-02T18:33:39.742Z,96.40
2018-12-02T18:36:11.935Z,96.50
2018-12-02T18:38:43.959Z,96.50
2018-12-02T18:41:21.708Z,96.50
2018-12-02T18:43:51.081Z,96.50
2018-12-02T18:46:20.974Z,96.40
2018-12-02T18:48:50.395Z,96.60
2018-12-02T18:51:29.162Z,96.40
2018-12-02T18:53:58.423Z,96.70
2018-12-02T18:56:27.742Z,96.80
2018-12-02T18:58:57.066Z,96.60
2018-12-02T19:01:26.366Z,96.60
2018-12-02T19:03:56.104Z,96.80
2018-12-02T19:06:28.326Z,96.70
2018-12-02T19:08:56.318Z,96.60
2018-12-02T19:11:25.452Z,96.60
2018-12-02T19:13:55.199Z,96.70
2018-12-02T19:16:24.476Z,96.70
2018-12-02T19:18:53.719Z,96.50
2018-12-02T19:21:25.090Z,96.50
2018-12-02T19:23:55.642Z,96.60
2018-12-02T19:26:25.220Z,96.50
2018-12-02T19:28:54.278Z,96.10
2018-12-02T19:31:23.484Z,96.40
2018-12-02T19:33:54.566Z,96.20
2018-12-02T19:36:27.878Z,96.20
2018-12-02T19:38:57.391Z,96.20
2018-12-02T19:41:26.801Z,96.20
2018-12-02T19:43:56.813Z,96.30
2018-12-02T19:46:26.345Z,96.20
2018-12-02T19:48:55.505Z,96.10
2018-12-02T19:51:24.640Z,96.20
2018-12-02T19:53:54.007Z,96.20
2018-12-02T19:56:23.392Z,96.10
2018-12-02T19:58:52.667Z,96.10
2018-12-02T20:01:22.122Z,96.20
2018-12-02T20:03:51.277Z,96.40
2018-12-02T20:06:20.364Z,96.20
2018-12-02T20:08:49.749Z,96.10
2018-12-02T20:11:19.322Z,96.20
2018-12-02T20:13:48.732Z,96.30
2018-12-02T20:16:18.739Z,96.40
2018-12-02T20:18:48.422Z,96.40
2018-12-02T20:21:18.796Z,96.30
2018-12-02T20:23:53.063Z,96.30
2018-12-02T20:26:22.303Z,96.30
2018-12-02T20:28:53.662Z,96.30
2018-12-02T20:31:25.722Z,96.30
2018-12-02T20:33:56.046Z,96.20
2018-12-02T20:36:25.398Z,96.30
2018-12-02T20:38:54.881Z,96.60
2018-12-02T20:41:25.270Z,96.70
2018-12-02T20:43:54.478Z,96.60
2018-12-02T20:46:23.863Z,96.70
2018-12-02T20:48:54.124Z,96.60
2018-12-02T20:51:23.444Z,96.60
2018-12-02T20:53:52.698Z,96.60
2018-12-02T20:56:21.852Z,96.50
2018-12-02T20:58:51.115Z,96.50
2018-12-02T21:01:20.718Z,96.70
2018-12-02T21:03:50.301Z,96.40
2018-12-02T21:06:20.927Z,96.50
2018-12-02T21:08:50.004Z,96.50
2018-12-02T21:11:19.349Z,96.50
2018-12-02T21:13:48.606Z,96.60
2018-12-02T21:16:18.038Z,96.50
2018-12-02T21:18:47.406Z,96.30
2018-12-02T21:21:16.769Z,96.30
2018-12-02T21:23:45.948Z,96.30
2018-12-02T21:26:15.341Z,96.40
2018-12-02T21:28:44.716Z,96.30
2018-12-02T21:31:14.092Z,96.40
2018-12-02T21:33:43.511Z,96.20
2018-12-02T21:36:12.790Z,96.00
2018-12-02T21:38:42.254Z,95.90
2018-12-02T21:41:11.399Z,95.90
2018-12-02T21:43:40.680Z,95.80
2018-12-02T21:46:09.887Z,95.90
2018-12-02T21:48:39.303Z,95.90
2018-12-02T21:51:08.929Z,95.90
2018-12-02T21:53:38.308Z,95.80
2018-12-02T21:56:07.855Z,95.70
2018-12-02T21:58:37.176Z,95.80
2018-12-02T22:01:11.907Z,95.90
2018-12-02T22:03:41.280Z,95.80
2018-12-02T22:06:11.762Z,95.80
2018-12-02T22:08:41.015Z,95.70
2018-12-02T22:11:10.433Z,95.60
2018-12-02T22:13:43.457Z,95.80
2018-12-02T22:16:08.875Z,95.70
2018-12-02T22:18:38.319Z,95.50
2018-12-02T22:21:07.767Z,95.80
2018-12-02T22:23:38.142Z,95.80
2018-12-02T22:26:07.484Z,95.80
2018-12-02T22:28:36.929Z,95.80
2018-12-02T22:31:06.318Z,96.20
2018-12-02T22:33:35.544Z,96.40
2018-12-02T22:36:04.908Z,96.20
2018-12-02T22:38:34.328Z,96.00
2018-12-02T22:41:03.796Z,96.10
2018-12-02T22:43:33.110Z,96.00
2018-12-02T22:46:02.377Z,96.00
2018-12-02T22:48:31.693Z,95.90
2018-12-02T22:51:00.970Z,95.90
2018-12-02T22:53:30.376Z,95.90
2018-12-02T22:55:59.806Z,96.20
2018-12-02T22:58:29.130Z,96.10
2018-12-02T23:01:03.332Z,96.00
2018-12-02T23:03:32.648Z,96.10
2018-12-02T23:06:02.540Z,96.10
2018-12-02T23:08:31.654Z,96.10
2018-12-02T23:11:00.870Z,96.10
2018-12-02T23:13:30.010Z,96.10
2018-12-02T23:15:59.317Z,96.00
2018-12-02T23:18:28.503Z,96.10
2018-12-02T23:20:57.876Z,96.10
2018-12-02T23:23:26.996Z,96.00
2018-12-02T23:25:56.300Z,95.80
2018-12-02T23:28:25.432Z,95.90
2018-12-02T23:30:54.742Z,95.90
2018-12-02T23:33:23.778Z,95.90
2018-12-02T23:35:53.076Z,96.10
2018-12-02T23:38:22.241Z,95.90
2018-12-02T23:40:51.622Z,95.90
2018-12-02T23:43:20.991Z,96.00
2018-12-02T23:45:50.445Z,96.00
2018-12-02T23:48:19.712Z,95.80
2018-12-02T23:50:49.153Z,96.00
2018-12-02T23:53:18.349Z,95.80
2018-12-02T23:55:47.539Z,95.80
2018-12-02T23:58:16.717Z,95.90
